Time;durP1;ratioP1;P1;durP2;ratioP2;P2;SDS_P1;SDS_P2;PMS_P1;PMS_P2;Temp;Humidity;BMP_temperature;BMP_pressure;BME280_temperature;BME280_humidity;BME280_pressure;Samples;Min_cycle;Max_cycle;Signal;HPM_P1;HPM_P2
2022/01/25 00:09:33;;;;;;;19.57;14.53;;;;;;;-0.12;100.00;99632.31;5037736;28;20900;-71
2022/01/25 00:15:10;;;;;;;21.00;13.63;;;;;;;-0.09;100.00;99640.75;5037619;28;20170;-71
2022/01/25 00:26:03;;;;;;;20.17;13.67;;;;;;;-0.14;100.00;99632.44;5037268;28;20196;-71
2022/01/25 00:28:44;;;;;;;20.77;14.20;;;;;;;-0.21;100.00;99631.19;5037580;28;20276;-71
2022/01/25 00:31:13;;;;;;;18.17;13.27;;;;;;;-0.26;99.54;99625.47;5037458;28;20257;-71
2022/01/25 00:33:45;;;;;;;20.33;14.63;;;;;;;-0.35;100.00;99627.97;5037432;28;20190;-71
2022/01/25 00:36:15;;;;;;;18.30;13.90;;;;;;;-0.31;100.00;99630.22;5037217;28;20224;-71
2022/01/25 00:38:42;;;;;;;18.57;13.60;;;;;;;-0.28;100.00;99627.38;5037295;28;20191;-71
2022/01/25 00:41:08;;;;;;;18.37;14.07;;;;;;;-0.27;100.00;99625.63;5037266;28;20526;-71
2022/01/25 00:43:35;;;;;;;18.07;14.00;;;;;;;-0.22;100.00;99626.13;5036801;28;20221;-71
2022/01/25 00:46:06;;;;;;;19.50;15.03;;;;;;;-0.16;100.00;99628.25;5037246;28;20427;-71
2022/01/25 00:48:42;;;;;;;21.13;15.30;;;;;;;-0.19;100.00;99621.47;5037266;28;20195;-71
2022/01/25 00:51:22;;;;;;;21.77;14.77;;;;;;;-0.22;100.00;99626.13;5036848;28;20734;-71
2022/01/25 00:53:56;;;;;;;21.90;16.00;;;;;;;-0.22;100.00;99637.38;5037157;28;20190;-71
2022/01/25 00:56:25;;;;;;;22.37;16.37;;;;;;;-0.26;100.00;99628.09;5036804;28;20192;-71
2022/01/25 00:58:52;;;;;;;23.53;17.00;;;;;;;-0.27;100.00;99623.81;5037046;28;20435;-71
2022/01/25 01:01:22;;;;;;;24.97;16.67;;;;;;;-0.23;100.00;99625.28;5036642;28;20451;-71
2022/01/25 01:03:49;;;;;;;25.40;17.30;;;;;;;-0.27;100.00;99626.44;5036874;28;20214;-71
2022/01/25 01:06:16;;;;;;;24.07;16.70;;;;;;;-0.28;100.00;99627.38;5036967;28;20200;-71
2022/01/25 01:08:44;;;;;;;24.00;17.73;;;;;;;-0.27;100.00;99629.06;5036855;28;20518;-71
2022/01/25 01:11:17;;;;;;;27.83;16.80;;;;;;;-0.27;100.00;99638.69;5036442;28;20470;-69
2022/01/25 01:13:55;;;;;;;23.70;16.70;;;;;;;-0.31;100.00;99638.06;5036770;28;20424;-68
2022/01/25 01:30:25;;;;;;;23.53;15.80;;;;;;;-0.33;100.00;99649.56;5036235;28;20465;-69
2022/01/25 01:33:24;;;;;;;22.27;16.37;;;;;;;-0.35;100.00;99641.03;5036399;28;20194;-68
2022/01/25 01:39:09;;;;;;;21.97;16.03;;;;;;;-0.28;100.00;99631.78;5015557;28;20205;-68
2022/01/25 01:41:52;;;;;;;24.23;17.13;;;;;;;-0.28;100.00;99634.38;5035816;28;20644;-68
2022/01/25 01:44:25;;;;;;;23.87;16.43;;;;;;;-0.31;100.00;99627.59;5036101;28;20211;-68
2022/01/25 01:47:07;;;;;;;28.30;17.63;;;;;;;-0.31;100.00;99625.00;5036384;28;20562;-68
2022/01/25 01:49:40;;;;;;;27.70;18.53;;;;;;;-0.31;100.00;99625.00;5036336;28;20198;-68
2022/01/25 01:52:08;;;;;;;27.50;18.67;;;;;;;-0.31;100.00;99624.19;5036382;28;20190;-68
2022/01/25 01:54:34;;;;;;;26.67;18.90;;;;;;;-0.28;100.00;99635.22;5036362;28;20198;-68
2022/01/25 01:57:01;;;;;;;28.17;17.90;;;;;;;-0.30;100.00;99631.88;5036250;28;20431;-68
2022/01/25 01:59:28;;;;;;;24.27;17.83;;;;;;;-0.36;100.00;99632.34;5036254;28;20435;-68
2022/01/25 02:01:55;;;;;;;24.50;17.17;;;;;;;-0.40;100.00;99627.47;5035867;28;20926;-68
2022/01/25 02:04:22;;;;;;;24.43;17.27;;;;;;;-0.46;100.00;99623.50;5036151;28;20463;-68
2022/01/25 02:06:48;;;;;;;22.83;16.57;;;;;;;-0.49;100.00;99620.31;5036261;28;20189;-68
2022/01/25 02:09:15;;;;;;;24.23;17.10;;;;;;;-0.44;100.00;99619.00;5035887;28;20453;-68
2022/01/25 02:11:42;;;;;;;23.37;16.70;;;;;;;-0.45;100.00;99619.13;5035717;28;20471;-68
2022/01/25 02:14:12;;;;;;;26.83;17.27;;;;;;;-0.44;100.00;99626.03;5035840;28;20593;-69
2022/01/25 02:16:55;;;;;;;24.03;17.70;;;;;;;-0.44;100.00;99621.59;5036157;28;20481;-68
2022/01/25 02:24:50;;;;;;;22.33;16.97;;;;;;;-0.46;100.00;99617.44;5035804;28;20640;-68
2022/01/25 02:27:17;;;;;;;26.30;17.70;;;;;;;-0.45;100.00;99619.94;5035993;28;20431;-68
2022/01/25 02:29:43;;;;;;;25.13;18.27;;;;;;;-0.43;100.00;99628.53;5035865;28;20423;-68
2022/01/25 02:32:10;;;;;;;23.13;18.10;;;;;;;-0.45;100.00;99624.38;5035999;28;20416;-71
2022/01/25 02:34:37;;;;;;;25.90;18.77;;;;;;;-0.45;100.00;99625.19;5035917;28;20422;-71
2022/01/25 02:37:09;;;;;;;27.03;19.13;;;;;;;-0.39;100.00;99635.19;5035942;28;20796;-71
2022/01/25 02:39:38;;;;;;;27.33;19.50;;;;;;;-0.42;100.00;99629.34;5035951;28;20423;-71
2022/01/25 02:42:06;;;;;;;29.93;19.33;;;;;;;-0.43;100.00;99632.91;5035848;28;20451;-71
2022/01/25 02:44:34;;;;;;;27.97;19.33;;;;;;;-0.43;100.00;99630.28;5035452;28;20463;-71
2022/01/25 02:49:45;;;;;;;25.93;18.83;;;;;;;-0.42;100.00;99629.34;5039261;28;20399;-71
2022/01/25 02:52:11;;;;;;;27.80;19.53;;;;;;;-0.40;100.00;99628.28;5039476;28;20419;-71
2022/01/25 02:54:40;;;;;;;28.77;19.87;;;;;;;-0.38;100.00;99620.34;5039439;28;20533;-71
2022/01/25 02:57:07;;;;;;;27.10;19.33;;;;;;;-0.44;100.00;99616.38;5039046;28;20198;-71
2022/01/25 02:59:34;;;;;;;32.17;19.60;;;;;;;-0.46;100.00;99618.28;5039304;28;20430;-71
2022/01/25 03:02:00;;;;;;;31.83;19.70;;;;;;;-0.46;100.00;99623.50;5039211;28;20525;-71
2022/01/25 03:04:26;;;;;;;26.50;18.10;;;;;;;-0.50;100.00;99614.22;5038800;28;20474;-71
2022/01/25 03:06:53;;;;;;;27.97;19.53;;;;;;;-0.54;100.00;99606.75;5038838;28;20725;-71
2022/01/25 03:09:20;;;;;;;27.90;19.67;;;;;;;-0.55;100.00;99600.69;5038844;28;20197;-69
2022/01/25 03:11:50;;;;;;;26.47;19.13;;;;;;;-0.57;100.00;99602.59;5038685;28;20550;-68
2022/01/25 03:14:19;;;;;;;26.40;18.73;;;;;;;-0.54;100.00;99599.72;5039047;28;20427;-68
2022/01/25 03:16:53;;;;;;;27.93;19.87;;;;;;;-0.50;100.00;99595.94;5039081;28;20196;-68
2022/01/25 03:19:42;;;;;;;29.63;20.80;;;;;;;-0.54;100.00;99594.50;5038990;28;20221;-68
2022/01/25 03:22:17;;;;;;;30.03;21.43;;;;;;;-0.48;100.00;99598.44;5038972;28;20423;-68
2022/01/25 03:24:43;;;;;;;30.70;20.00;;;;;;;-0.53;100.00;99601.38;5038764;28;20470;-68
2022/01/25 03:27:10;;;;;;;30.50;20.87;;;;;;;-0.55;100.00;99608.50;5038828;28;20269;-68
2022/01/25 03:29:36;;;;;;;27.73;20.57;;;;;;;-0.59;100.00;99601.84;5038746;28;20450;-68
2022/01/25 03:32:03;;;;;;;27.10;20.00;;;;;;;-0.57;100.00;99599.13;5038333;28;20462;-68
2022/01/25 03:34:30;;;;;;;28.67;20.37;;;;;;;-0.61;100.00;99597.69;5038678;28;20198;-68
2022/01/25 03:36:56;;;;;;;29.27;19.40;;;;;;;-0.66;100.00;99599.78;5038620;28;20434;-69
2022/01/25 03:39:22;;;;;;;30.33;20.17;;;;;;;-0.68;100.00;99597.28;5038279;28;20435;-68
2022/01/25 03:41:49;;;;;;;26.17;18.87;;;;;;;-0.72;100.00;99602.84;5038457;28;20462;-68
2022/01/25 03:44:17;;;;;;;25.30;18.77;;;;;;;-0.77;100.00;99595.34;5038472;28;20475;-68
2022/01/25 03:46:57;;;;;;;27.13;19.63;;;;;;;-0.73;100.00;99598.56;5038123;28;20952;-68
2022/01/25 03:52:08;;;;;;;26.47;18.53;;;;;;;-0.76;100.00;99601.41;5038179;28;20486;-68
2022/01/25 03:54:36;;;;;;;29.10;18.67;;;;;;;-0.78;100.00;99598.06;5038293;28;20452;-68
2022/01/25 03:57:02;;;;;;;24.60;17.83;;;;;;;-0.79;100.00;99596.41;5038150;28;20432;-68
2022/01/25 03:59:29;;;;;;;25.37;18.37;;;;;;;-0.79;100.00;99601.63;5037952;28;20441;-68
2022/01/25 04:01:56;;;;;;;28.57;18.20;;;;;;;-0.77;100.00;99595.34;5037672;28;20490;-68
2022/01/25 04:04:25;;;;;;;27.23;18.43;;;;;;;-0.76;100.00;99591.78;5037821;28;20470;-68
2022/01/25 04:06:53;;;;;;;29.47;19.00;;;;;;;-0.79;100.00;99589.41;5037720;28;20822;-68
2022/01/25 04:09:21;;;;;;;26.40;17.60;;;;;;;-0.81;100.00;99598.31;5037581;28;20443;-68
2022/01/25 04:11:47;;;;;;;27.00;18.73;;;;;;;-0.74;100.00;99581.22;5037334;28;20471;-68
2022/01/25 04:14:14;;;;;;;28.43;18.10;;;;;;;-0.82;100.00;99580.94;5037734;28;20431;-68
2022/01/25 04:16:49;;;;;;;27.47;18.77;;;;;;;-0.76;100.00;99572.69;5037278;28;20435;-68
2022/01/25 04:19:25;;;;;;;25.70;18.33;;;;;;;-0.78;100.00;99572.78;5037631;28;20497;-68
2022/01/25 04:27:34;;;;;;;26.03;17.83;;;;;;;-0.80;100.00;99560.78;4996120;28;20424;-68
2022/01/25 04:30:02;;;;;;;24.07;17.67;;;;;;;-0.87;100.00;99564.78;4996025;28;20963;-68
2022/01/25 04:32:34;;;;;;;23.53;17.63;;;;;;;-0.92;100.00;99562.53;5013988;28;20490;-68
2022/01/25 04:35:12;;;;;;;24.93;17.33;;;;;;;-0.99;100.00;99561.28;5037323;28;20424;-68
2022/01/25 04:48:56;;;;;;;25.17;17.90;;;;;;;-1.00;100.00;99564.84;5036743;28;20479;-68
2022/01/25 04:54:10;;;;;;;23.13;16.87;;;;;;;-1.01;100.00;99559.72;5027926;28;20842;-68
2022/01/25 04:56:43;;;;;;;23.00;17.20;;;;;;;-0.94;100.00;99558.34;5036708;28;20451;-68
2022/01/25 04:59:16;;;;;;;23.60;16.63;;;;;;;-1.04;100.00;99546.91;5036826;28;20493;-68
2022/01/25 05:01:44;;;;;;;20.17;15.90;;;;;;;-1.03;100.00;99551.19;5036443;28;20467;-68
2022/01/25 05:04:14;;;;;;;26.70;17.27;;;;;;;-1.00;100.00;99553.56;5036526;28;20550;-68
2022/01/25 05:06:43;;;;;;;24.33;17.23;;;;;;;-0.95;100.00;99560.13;5036535;28;20755;-68
2022/01/25 05:09:12;;;;;;;21.90;16.43;;;;;;;-1.02;100.00;99561.53;5036703;28;20447;-68
2022/01/25 05:11:44;;;;;;;23.03;16.40;;;;;;;-1.03;100.00;99553.81;5035967;28;20463;-68
2022/01/25 05:14:16;;;;;;;23.97;17.10;;;;;;;-0.98;100.00;99556.91;5036591;28;20782;-68
2022/01/25 05:16:56;;;;;;;24.37;17.13;;;;;;;-1.01;100.00;99562.34;5036301;28;20432;-68
2022/01/25 05:22:04;;;;;;;27.27;17.23;;;;;;;-1.05;100.00;99561.72;5036390;28;20446;-68
2022/01/25 05:22:26;;;;;;;25.57;17.07;;;;;;;-1.11;100.00;99571.78;5035674;28;20423;-71
2022/01/25 05:24:53;;;;;;;26.00;16.50;;;;;;;-1.18;100.00;99571.38;5036310;28;20515;-70
2022/01/25 05:27:23;;;;;;;24.33;17.20;;;;;;;-1.17;100.00;99577.44;5036127;28;20431;-71
2022/01/25 05:29:50;;;;;;;29.70;18.73;;;;;;;-1.10;100.00;99576.88;5035992;28;20725;-71
2022/01/25 05:32:17;;;;;;;27.63;18.43;;;;;;;-1.07;100.00;99571.44;5035991;28;20870;-71
2022/01/25 05:34:43;;;;;;;29.47;19.80;;;;;;;-1.06;100.00;99578.34;5035771;28;20411;-71
2022/01/25 05:37:10;;;;;;;24.40;17.13;;;;;;;-1.11;100.00;99567.41;5035704;28;20435;-71
2022/01/25 05:39:37;;;;;;;25.40;17.40;;;;;;;-1.07;100.00;99573.22;5035836;28;20529;-71
2022/01/25 05:42:22;;;;;;;27.00;17.67;;;;;;;-1.11;100.00;99567.41;5035697;28;20451;-71
2022/01/25 05:44:58;;;;;;;30.17;18.17;;;;;;;-1.11;100.00;99575.22;5035516;28;20793;-71
2022/01/25 05:47:28;;;;;;;27.17;17.57;;;;;;;-1.10;100.00;99576.03;5035552;28;20846;-71
2022/01/25 05:49:55;;;;;;;27.53;18.03;;;;;;;-1.06;100.00;99575.72;5035870;28;20780;-71
2022/01/25 05:52:22;;;;;;;27.10;17.50;;;;;;;-1.04;100.00;99567.78;5035945;28;20719;-71
2022/01/25 05:54:48;;;;;;;28.33;17.23;;;;;;;-1.11;100.00;99572.63;5035903;28;20442;-71
2022/01/25 05:57:15;;;;;;;24.77;17.40;;;;;;;-1.12;100.00;99575.34;5035584;28;20862;-71
2022/01/25 05:59:42;;;;;;;25.10;17.50;;;;;;;-1.14;100.00;99578.06;5035859;28;20733;-71
2022/01/25 06:02:08;;;;;;;25.87;18.53;;;;;;;-1.14;100.00;99585.88;5035466;28;20843;-71
2022/01/25 06:04:35;;;;;;;30.63;19.67;;;;;;;-1.04;100.00;99586.88;5035359;28;20781;-71
2022/01/25 06:07:02;;;;;;;27.20;19.57;;;;;;;-1.11;100.00;99590.88;5035508;28;20435;-72
2022/01/25 06:09:28;;;;;;;28.20;18.77;;;;;;;-1.08;100.00;99588.03;5035657;28;20443;-71
2022/01/25 06:11:55;;;;;;;27.13;19.17;;;;;;;-1.13;100.00;99589.34;5035119;28;20473;-70
2022/01/25 06:14:22;;;;;;;25.70;17.83;;;;;;;-1.17;100.00;99593.91;5035260;28;20726;-70
2022/01/25 06:16:49;;;;;;;24.60;17.33;;;;;;;-1.19;100.00;99592.34;5035390;28;20430;-70
2022/01/25 06:19:15;;;;;;;25.27;17.63;;;;;;;-1.20;100.00;99594.16;5035497;28;20427;-70
2022/01/25 06:21:42;;;;;;;27.50;18.97;;;;;;;-1.18;100.00;99597.47;5035276;28;20455;-71
2022/01/25 06:24:08;;;;;;;27.67;17.97;;;;;;;-1.25;100.00;99606.69;5039253;28;20467;-70
2022/01/25 06:26:34;;;;;;;23.37;17.03;;;;;;;-1.26;100.00;99605.00;5039342;28;20425;-70
2022/01/25 06:29:01;;;;;;;25.13;17.60;;;;;;;-1.30;100.00;99608.75;5039111;28;20889;-70
2022/01/25 06:31:30;;;;;;;26.57;19.67;;;;;;;-1.25;100.00;99611.91;5038879;28;20459;-71
2022/01/25 06:33:56;;;;;;;25.67;18.23;;;;;;;-1.22;100.00;99611.66;5038890;28;20853;-71
2022/01/25 06:36:23;;;;;;;26.23;18.23;;;;;;;-1.19;100.00;99613.22;5039027;28;20426;-71
2022/01/25 06:38:49;;;;;;;29.43;19.37;;;;;;;-1.24;100.00;99612.72;5038689;28;20458;-70
2022/01/25 06:41:17;;;;;;;25.63;18.03;;;;;;;-1.25;100.00;99621.50;5038901;28;20455;-71
2022/01/25 06:43:44;;;;;;;28.47;18.70;;;;;;;-1.26;100.00;99615.44;5038512;28;20427;-71
2022/01/25 06:46:10;;;;;;;23.10;17.50;;;;;;;-1.27;100.00;99624.22;5038975;28;20434;-71
2022/01/25 06:48:36;;;;;;;26.70;18.27;;;;;;;-1.26;100.00;99619.84;5038846;28;20435;-71
2022/01/25 06:51:03;;;;;;;30.63;19.83;;;;;;;-1.26;100.00;99631.09;5038537;28;20465;-71
2022/01/25 06:53:29;;;;;;;26.27;18.80;;;;;;;-1.25;100.00;99632.78;5038359;28;20427;-69
2022/01/25 06:55:56;;;;;;;27.90;19.77;;;;;;;-1.26;100.00;99630.28;5038114;28;20431;-71
2022/01/25 06:58:22;;;;;;;28.00;18.60;;;;;;;-1.29;100.00;99623.50;5038554;28;20416;-71
2022/01/25 07:00:48;;;;;;;27.40;18.97;;;;;;;-1.26;100.00;99635.50;5038580;28;20458;-71
2022/01/25 07:03:15;;;;;;;26.70;18.67;;;;;;;-1.29;100.00;99638.31;5038222;28;20431;-71
2022/01/25 07:05:41;;;;;;;27.37;19.37;;;;;;;-1.26;100.00;99636.31;5037886;28;20463;-71
2022/01/25 07:08:07;;;;;;;31.07;19.93;;;;;;;-1.29;100.00;99643.53;5038435;28;20438;-71
2022/01/25 07:10:34;;;;;;;26.60;19.00;;;;;;;-1.28;100.00;99642.56;5038295;28;20472;-71
2022/01/25 07:13:00;;;;;;;27.67;19.07;;;;;;;-1.28;100.00;99638.19;5038335;28;20462;-71
2022/01/25 07:15:27;;;;;;;29.63;19.63;;;;;;;-1.31;100.00;99635.78;5038320;28;20434;-70
2022/01/25 07:17:53;;;;;;;31.40;19.07;;;;;;;-1.29;100.00;99636.53;5038734;28;20458;-71
2022/01/25 07:20:19;;;;;;;32.17;20.37;;;;;;;-1.22;100.00;99635.16;5038224;28;20455;-71
2022/01/25 07:22:46;;;;;;;25.37;18.97;;;;;;;-1.27;100.00;99639.00;5038226;28;20442;-71
2022/01/25 07:25:13;;;;;;;28.97;19.07;;;;;;;-1.24;100.00;99644.03;5038358;28;20467;-70
2022/01/25 07:27:40;;;;;;;30.47;19.73;;;;;;;-1.24;100.00;99641.41;5038155;28;20435;-71
2022/01/25 07:30:07;;;;;;;35.57;21.30;;;;;;;-1.17;100.00;99640.88;5037864;28;20455;-70
2022/01/25 07:32:34;;;;;;;30.27;20.60;;;;;;;-1.09;100.00;99645.56;5037532;28;20866;-70
2022/01/25 07:35:01;;;;;;;30.07;20.00;;;;;;;-1.02;100.00;99652.03;5037741;28;20431;-70
2022/01/25 07:37:28;;;;;;;27.07;19.07;;;;;;;-1.03;100.00;99651.19;5037665;28;20423;-70
2022/01/25 07:39:56;;;;;;;32.00;19.77;;;;;;;-0.98;100.00;99640.44;5037525;28;20885;-70
2022/01/25 07:42:22;;;;;;;28.13;19.30;;;;;;;-0.98;100.00;99643.03;5037950;28;20446;-70
2022/01/25 07:44:48;;;;;;;33.90;19.60;;;;;;;-0.96;100.00;99639.38;5037662;28;20909;-70
2022/01/25 07:47:15;;;;;;;31.97;20.57;;;;;;;-0.87;99.82;99643.09;5037946;28;20442;-70
2022/01/25 07:49:41;;;;;;;31.20;19.40;;;;;;;-0.87;100.00;99636.13;5037864;28;20431;-71
2022/01/25 07:52:08;;;;;;;31.57;20.07;;;;;;;-0.88;99.98;99646.66;5037664;28;20700;-71
2022/01/25 07:54:34;;;;;;;28.63;20.37;;;;;;;-0.83;99.47;99639.34;5036955;28;20431;-71
2022/01/25 07:57:01;;;;;;;27.17;19.60;;;;;;;-0.78;99.43;99643.28;5037507;28;20436;-70
2022/01/25 07:59:27;;;;;;;27.77;18.20;;;;;;;-0.75;99.33;99640.47;5037362;28;20427;-70
2022/01/25 08:01:54;;;;;;;25.37;17.77;;;;;;;-0.69;99.56;99653.06;5037723;28;20787;-70
2022/01/25 08:04:20;;;;;;;28.80;18.67;;;;;;;-0.63;99.54;99650.03;5037672;28;20478;-70
2022/01/25 08:06:48;;;;;;;27.83;17.90;;;;;;;-0.65;99.08;99648.47;5037896;28;20446;-71
2022/01/25 08:09:14;;;;;;;24.87;18.33;;;;;;;-0.61;99.01;99653.38;5037732;28;20451;-70
2022/01/25 08:11:42;;;;;;;25.13;17.83;;;;;;;-0.54;98.46;99648.53;5037072;28;20520;-72
2022/01/25 08:14:16;;;;;;;23.60;17.77;;;;;;;-0.53;98.13;99643.19;5037033;28;20863;-71
2022/01/25 08:16:48;;;;;;;26.87;17.20;;;;;;;-0.46;97.95;99647.03;5037120;28;20423;-70
2022/01/25 08:19:16;;;;;;;26.30;17.33;;;;;;;-0.45;97.97;99645.25;5037189;28;20202;-70
2022/01/25 08:21:43;;;;;;;24.30;16.80;;;;;;;-0.27;97.51;99644.72;5037300;28;20462;-70
2022/01/25 08:24:14;;;;;;;28.00;19.20;;;;;;;-0.31;96.55;99639.84;5037280;28;20436;-71
2022/01/25 08:26:42;;;;;;;28.10;18.70;;;;;;;-0.28;97.64;99640.47;5037337;28;20419;-70
2022/01/25 08:29:08;;;;;;;24.17;16.63;;;;;;;-0.22;96.63;99644.41;5037297;28;20194;-70
2022/01/25 08:31:36;;;;;;;27.73;17.37;;;;;;;-0.22;96.70;99644.41;5036870;28;20929;-70
2022/01/25 08:34:03;;;;;;;25.27;17.73;;;;;;;-0.18;97.65;99649.28;5036999;28;20209;-70
2022/01/25 08:36:30;;;;;;;24.77;17.67;;;;;;;-0.12;97.68;99642.78;5037108;28;20454;-71
2022/01/25 08:38:56;;;;;;;26.27;16.30;;;;;;;-0.13;97.46;99644.53;5036937;28;20206;-70
2022/01/25 08:41:23;;;;;;;31.27;18.27;;;;;;;-0.06;97.51;99653.59;5036761;28;20221;-70
2022/01/25 08:43:50;;;;;;;23.77;16.93;;;;;;;-0.03;96.96;99653.34;5036738;28;20208;-71
2022/01/25 08:46:18;;;;;;;25.37;17.60;;;;;;;0.01;96.87;99646.16;5035679;28;20233;-70
2022/01/25 08:48:46;;;;;;;27.00;17.53;;;;;;;0.09;96.27;99654.22;5036657;28;20210;-71
2022/01/25 08:51:13;;;;;;;25.43;17.70;;;;;;;0.18;95.69;99646.53;5036807;28;20275;-70
2022/01/25 08:53:40;;;;;;;23.13;16.77;;;;;;;0.21;96.41;99652.50;5036925;28;20194;-71
2022/01/25 08:56:07;;;;;;;28.13;17.57;;;;;;;0.23;96.07;99649.63;5036909;28;20194;-71
2022/01/25 08:58:34;;;;;;;27.00;18.43;;;;;;;0.26;95.82;99650.38;5036650;28;20493;-71
2022/01/25 09:01:00;;;;;;;25.33;18.20;;;;;;;0.30;95.51;99647.41;5036669;28;20218;-71
2022/01/25 09:03:27;;;;;;;27.17;17.10;;;;;;;0.40;95.20;99647.53;5036834;28;20423;-71
2022/01/25 09:05:55;;;;;;;24.07;16.60;;;;;;;0.43;95.18;99647.28;5036661;28;20220;-70
2022/01/25 09:08:23;;;;;;;23.93;17.13;;;;;;;0.49;94.74;99646.84;5036612;28;20201;-71
2022/01/25 09:10:56;;;;;;;23.73;17.90;;;;;;;0.50;94.78;99641.50;5036304;28;20253;-71
2022/01/25 09:13:23;;;;;;;24.43;17.50;;;;;;;0.52;93.91;99649.19;5036158;28;20585;-71
2022/01/25 09:15:49;;;;;;;30.07;18.17;;;;;;;0.61;94.18;99651.09;5036405;28;20206;-71
2022/01/25 09:18:16;;;;;;;25.50;17.50;;;;;;;0.87;92.47;99642.09;5036318;28;20205;-70
2022/01/25 09:20:42;;;;;;;26.47;17.47;;;;;;;0.83;93.12;99648.50;5036240;28;20222;-70
2022/01/25 09:23:09;;;;;;;26.50;17.63;;;;;;;0.74;94.29;99639.59;5036402;28;20210;-70
2022/01/25 09:25:36;;;;;;;27.30;17.70;;;;;;;0.85;93.63;99641.38;5036055;28;20276;-71
2022/01/25 09:28:03;;;;;;;24.30;17.60;;;;;;;0.86;93.61;99643.03;5036261;28;20204;-70
2022/01/25 09:30:30;;;;;;;28.90;17.67;;;;;;;0.91;93.98;99646.13;5036192;28;20218;-71
2022/01/25 09:32:57;;;;;;;31.20;18.67;;;;;;;0.94;94.00;99644.09;5036254;28;20200;-70
2022/01/25 09:35:24;;;;;;;27.00;17.40;;;;;;;1.02;93.54;99646.94;5036286;28;20277;-71
2022/01/25 09:37:51;;;;;;;24.20;18.17;;;;;;;1.27;92.85;99643.22;5036045;28;20498;-72
2022/01/25 09:40:20;;;;;;;27.43;18.07;;;;;;;1.28;91.21;99642.25;5035958;28;20225;-72
2022/01/25 09:42:50;;;;;;;25.33;17.47;;;;;;;1.40;91.30;99641.28;5035976;28;20277;-71
2022/01/25 09:45:17;;;;;;;26.90;18.63;;;;;;;1.49;89.92;99637.94;5035676;28;20627;-71
2022/01/25 09:47:43;;;;;;;25.00;18.13;;;;;;;1.50;90.74;99637.81;5035846;28;20209;-71
2022/01/25 09:50:10;;;;;;;22.80;17.60;;;;;;;1.42;91.52;99637.59;5035760;28;20232;-71
2022/01/25 09:52:36;;;;;;;24.70;18.03;;;;;;;1.43;92.13;99634.00;5036136;28;20202;-71
2022/01/25 09:55:09;;;;;;;26.53;18.27;;;;;;;1.49;91.76;99635.31;5036079;28;20225;-71
2022/01/25 09:57:36;;;;;;;24.33;18.40;;;;;;;1.44;90.76;99632.22;5041675;28;20197;-71
2022/01/25 10:00:03;;;;;;;27.63;18.13;;;;;;;1.55;90.96;99629.56;5042569;28;20230;-71
2022/01/25 10:02:57;;;;;;;27.57;18.27;;;;;;;1.60;91.32;99632.66;5042502;28;20193;-71
2022/01/25 10:05:30;;;;;;;24.30;18.57;;;;;;;1.98;88.82;99635.59;5034453;28;20320;-71
2022/01/25 10:08:01;;;;;;;24.27;19.57;;;;;;;2.04;87.30;99638.56;5042569;28;20193;-71
2022/01/25 10:10:29;;;;;;;29.80;19.77;;;;;;;2.18;87.61;99634.75;5042311;28;20230;-71
2022/01/25 10:13:14;;;;;;;26.33;18.43;;;;;;;2.21;85.98;99634.53;5042368;28;20209;-70
2022/01/25 10:15:41;;;;;;;27.30;20.37;;;;;;;2.26;86.87;99635.78;5042458;28;20190;-71
2022/01/25 10:18:07;;;;;;;30.00;21.17;;;;;;;2.31;86.80;99630.97;5042212;28;20544;-71
2022/01/25 10:20:40;;;;;;;28.57;20.47;;;;;;;2.32;86.30;99627.41;5042225;28;20221;-71
2022/01/25 10:23:22;;;;;;;25.80;20.33;;;;;;;2.38;86.28;99636.53;5042322;28;20193;-71
2022/01/25 10:25:50;;;;;;;30.40;21.27;;;;;;;2.41;86.52;99638.91;5042052;28;20217;-71
2022/01/25 10:28:23;;;;;;;29.43;20.37;;;;;;;2.41;87.49;99633.66;5042154;28;20217;-71
2022/01/25 10:30:57;;;;;;;25.70;18.73;;;;;;;2.57;85.42;99634.84;5041825;28;20644;-71
2022/01/25 10:33:35;;;;;;;30.10;19.00;;;;;;;2.46;85.51;99637.56;5042096;28;20200;-71
2022/01/25 10:36:13;;;;;;;27.13;19.43;;;;;;;2.59;85.33;99637.34;5041877;28;20247;-71
2022/01/25 10:38:41;;;;;;;25.20;19.20;;;;;;;2.68;85.00;99631.31;5041899;28;20585;-71
2022/01/25 10:41:18;;;;;;;24.53;19.67;;;;;;;2.56;85.88;99633.19;5042170;28;20222;-71
2022/01/25 10:43:47;;;;;;;29.03;21.17;;;;;;;2.61;84.79;99638.03;5042087;28;20197;-71
2022/01/25 10:46:18;;;;;;;26.37;20.00;;;;;;;2.77;85.14;99639.25;5042008;28;20245;-71
2022/01/25 10:48:59;;;;;;;30.10;21.80;;;;;;;2.71;85.43;99636.31;5041874;28;20206;-71
2022/01/25 10:51:37;;;;;;;28.87;20.87;;;;;;;2.88;83.77;99622.53;5041627;28;20236;-70
2022/01/25 10:54:12;;;;;;;25.23;19.83;;;;;;;2.86;84.21;99619.22;5042074;28;20196;-71
2022/01/25 10:56:42;;;;;;;26.30;19.37;;;;;;;2.85;84.26;99633.34;5042019;28;20193;-71
2022/01/25 10:59:13;;;;;;;25.37;20.33;;;;;;;2.86;83.84;99621.88;5041982;28;20202;-71
2022/01/25 11:01:45;;;;;;;26.40;21.40;;;;;;;2.74;84.39;99626.38;5041900;28;20233;-71
2022/01/25 11:04:15;;;;;;;29.60;20.73;;;;;;;2.84;84.00;99624.63;5041607;28;20213;-71
2022/01/25 11:06:42;;;;;;;28.73;21.43;;;;;;;2.75;84.75;99621.97;5041989;28;20249;-71
2022/01/25 11:09:11;;;;;;;27.33;21.37;;;;;;;2.80;84.11;99620.59;5038299;28;20210;-71
2022/01/25 11:11:44;;;;;;;27.23;21.90;;;;;;;2.83;85.41;99608.97;5038206;28;20321;-71
2022/01/25 11:17:10;;;;;;;29.30;22.17;;;;;;;2.86;84.50;99612.19;4996524;28;20206;-68
2022/01/25 11:19:37;;;;;;;28.17;20.03;;;;;;;3.09;83.97;99608.41;4996681;28;20227;-71
2022/01/25 11:22:03;;;;;;;31.30;22.17;;;;;;;3.09;83.96;99615.44;5014264;28;20226;-71
2022/01/25 11:24:31;;;;;;;26.00;21.60;;;;;;;3.11;83.82;99614.34;5038390;28;20209;-71
2022/01/25 11:27:02;;;;;;;29.20;21.63;;;;;;;3.16;84.29;99611.31;5038284;28;20309;-69
2022/01/25 11:29:29;;;;;;;30.67;22.90;;;;;;;3.18;84.50;99610.22;5038172;28;20256;-69
2022/01/25 11:32:01;;;;;;;30.83;21.00;;;;;;;3.25;84.33;99597.38;5038032;28;20236;-70
2022/01/25 11:34:29;;;;;;;31.50;23.30;;;;;;;3.21;84.66;99602.03;5037780;28;20616;-71
2022/01/25 11:36:58;;;;;;;30.90;22.40;;;;;;;3.18;85.31;99594.44;5038126;28;20202;-71
2022/01/25 11:39:27;;;;;;;33.73;23.47;;;;;;;3.18;84.46;99594.44;5037812;28;20573;-71
2022/01/25 11:42:04;;;;;;;28.77;22.40;;;;;;;3.23;83.64;99604.53;5037538;28;20236;-71
2022/01/25 11:44:31;;;;;;;28.97;21.77;;;;;;;3.20;83.56;99604.84;5038186;28;20193;-71
2022/01/25 11:47:10;;;;;;;30.07;23.17;;;;;;;3.10;83.34;99611.84;5038068;28;20229;-71
2022/01/25 11:49:50;;;;;;;31.57;23.00;;;;;;;3.00;84.09;99597.84;5038066;28;20193;-71
2022/01/25 11:52:17;;;;;;;30.80;23.87;;;;;;;3.20;84.01;99602.22;5037838;28;20240;-71
2022/01/25 11:54:44;;;;;;;26.00;20.80;;;;;;;3.21;83.31;99611.75;5037649;28;20209;-71
2022/01/25 11:57:16;;;;;;;30.50;24.03;;;;;;;3.14;84.20;99608.81;5037648;28;20197;-72
2022/01/25 11:59:45;;;;;;;37.10;25.27;;;;;;;3.23;84.87;99609.81;5037506;28;20194;-71
2022/01/25 12:02:12;;;;;;;34.87;24.47;;;;;;;3.28;84.85;99612.84;5037881;28;20521;-71
2022/01/25 12:04:44;;;;;;;32.03;24.30;;;;;;;3.26;85.04;99606.91;5037501;28;20201;-71
2022/01/25 12:07:24;;;;;;;35.37;26.03;;;;;;;3.17;85.39;99616.41;5037179;28;20711;-71
2022/01/25 12:10:02;;;;;;;36.53;26.03;;;;;;;3.16;85.28;99608.69;5037571;28;20193;-71
2022/01/25 12:12:28;;;;;;;33.10;24.27;;;;;;;3.16;85.01;99608.69;5037326;28;20204;-71
2022/01/25 12:14:56;;;;;;;34.93;24.80;;;;;;;3.01;85.44;99604.75;5037352;28;20198;-71
2022/01/25 12:17:28;;;;;;;29.47;21.67;;;;;;;2.98;84.36;99603.22;5037503;28;20198;-71
2022/01/25 12:19:59;;;;;;;28.63;20.37;;;;;;;2.89;84.99;99609.28;5036085;28;20231;-71
2022/01/25 12:22:35;;;;;;;34.33;24.60;;;;;;;2.89;85.83;99603.22;5037248;28;20328;-71
2022/01/25 12:25:12;;;;;;;34.07;25.07;;;;;;;2.92;86.34;99610.81;5037179;28;20190;-71
2022/01/25 12:27:46;;;;;;;33.97;24.60;;;;;;;2.88;86.39;99598.91;5037255;28;20190;-71
2022/01/25 12:30:30;;;;;;;34.70;23.60;;;;;;;2.99;86.02;99606.69;5036939;28;20640;-72
2022/01/25 12:33:01;;;;;;;33.93;24.40;;;;;;;2.95;86.28;99593.00;5036915;28;20186;-71
2022/01/25 12:35:37;;;;;;;35.13;25.40;;;;;;;2.91;87.29;99599.50;5037304;28;20194;-71